Quick Links (Output Below):   Max & Min Temps   /   Climate Reports   /   Zone Forecasts
River Forecasts   /   Forestry Forecasts   /   Aviation Forecasts   /   Radars   /   Features

Terminal Aerodrome Forecast (Jonesboro)

Pick a Site:
Arkadelphia | El Dorado | Fayetteville | Fort Smith | Harrison | Highfill | Hot Springs | Jonesboro
Little Rock | Monticello | Mountain Home | Pine Bluff | Texarkana
 Forecast 

KJBR 061929Z 0619/0718 17012G19KT P6SM SCT060 SCT250
     FM070100 14005KT P6SM FEW050 FEW250
     FM071500 20011KT P6SM BKN050=


 Latest METARs (Observations) 
How to Decode METARs
19Z KJBR 061853Z AUTO 16012G19KT 10SM SCT075 28/11 A3007 RMK AO2
         SLP180 T02780111
         
18Z KJBR 061753Z AUTO 18010KT 10SM SCT070 BKN085 27/12 A3009 RMK AO2
         SLP187 T02720117 10283 20133 58019
         
17Z KJBR 061653Z AUTO 19011KT 10SM FEW060 BKN075 27/13 A3012 RMK AO2
         SLP196 T02670133
         
16Z KJBR 061553Z AUTO 19007KT 10SM CLR 26/15 A3014 RMK AO2 SLP202
         T02610150
         
15Z KJBR 061453Z AUTO 19007KT 10SM CLR 24/16 A3015 RMK AO2 SLP206
         T02390156 50005
         
14Z KJBR 061353Z AUTO 19008KT 10SM CLR 22/15 A3015 RMK AO2 SLP206
         T02170150
         
13Z KJBR 061253Z AUTO 15003KT 10SM CLR 19/14 A3014 RMK AO2 SLP204
         T01890139
         
12Z KJBR 061153Z AUTO 04004KT 9SM CLR 13/13 A3013 RMK AO2 SLP201
         T01330128 10150 20122 53008
         
11Z KJBR 061053Z AUTO 00000KT 10SM CLR 13/12 A3011 RMK AO2 SLP194
         T01330117
         
10Z KJBR 060953Z AUTO 09004KT 10SM CLR 13/12 A3011 RMK AO2 SLP192
         T01330122
         
***** Today's Observations (Above) *****


Back to Main Page
http://www.srh.noaa.gov/lzk/qfcst.php

USA.gov is the U.S. government's official web portal to all federal, state and local government web resources and services.